Time;durP1;ratioP1;P1;durP2;ratioP2;P2;SDS_P1;SDS_P2;PMS_P1;PMS_P2;Temp;Humidity;BMP_temperature;BMP_pressure;BME280_temperature;BME280_humidity;BME280_pressure;Samples;Min_cycle;Max_cycle;Signal;HPM_P1;HPM_P2
2023/08/06 00:00:00;;;;;;;7.30;5.20;;;;;;;;;;5136232;27;20055;-83
2023/08/06 00:02:27;;;;;;;11.48;5.47;;;;;;;;;;5135940;27;20050;-81
2023/08/06 00:04:55;;;;;;;7.53;5.68;;;;;;;;;;5136032;27;20043;-83
2023/08/06 00:07:22;;;;;;;6.07;5.25;;;;;;;;;;5137773;27;20047;-81
2023/08/06 00:09:49;;;;;;;6.43;4.82;;;;;;;;;;5136775;27;20047;-81
2023/08/06 00:12:17;;;;;;;5.30;4.80;;;;;;;;;;5135696;27;20075;-81
2023/08/06 00:14:44;;;;;;;4.85;4.45;;;;;;;;;;5140924;27;20098;-85
2023/08/06 00:17:12;;;;;;;11.02;5.00;;;;;;;;;;5123886;27;20054;-84
2023/08/06 00:19:39;;;;;;;7.57;5.43;;;;;;;;;;5120464;28;20051;-83
2023/08/06 00:22:06;;;;;;;5.53;5.00;;;;;;;;;;5120278;28;20511;-84
2023/08/06 00:24:34;;;;;;;5.65;5.03;;;;;;;;;;5120272;28;20039;-84
2023/08/06 00:27:02;;;;;;;9.38;5.25;;;;;;;;;;5118831;28;20051;-83
2023/08/06 00:29:29;;;;;;;7.57;5.43;;;;;;;;;;5122335;28;20051;-84
2023/08/06 00:31:56;;;;;;;9.13;5.22;;;;;;;;;;5120559;28;20116;-83
2023/08/06 00:34:24;;;;;;;5.45;5.05;;;;;;;;;;5118418;28;20071;-83
2023/08/06 00:36:51;;;;;;;5.30;4.80;;;;;;;;;;5115214;28;20090;-83
2023/08/06 00:39:18;;;;;;;4.90;4.50;;;;;;;;;;5117793;28;20040;-84
2023/08/06 00:41:45;;;;;;;8.18;4.55;;;;;;;;;;5118727;28;20044;-85
2023/08/06 00:44:13;;;;;;;5.38;4.88;;;;;;;;;;5119019;28;20070;-85
2023/08/06 00:46:40;;;;;;;5.13;4.63;;;;;;;;;;5118630;28;20056;-84
2023/08/06 00:49:07;;;;;;;5.25;4.82;;;;;;;;;;5119952;28;20071;-84
2023/08/06 00:51:35;;;;;;;5.38;4.88;;;;;;;;;;5119585;27;20048;-85
2023/08/06 00:54:02;;;;;;;4.82;4.32;;;;;;;;;;5117608;28;20092;-81
2023/08/06 00:56:30;;;;;;;7.07;4.97;;;;;;;;;;5117436;28;20048;-85
2023/08/06 00:58:57;;;;;;;5.18;4.75;;;;;;;;;;5119365;28;20044;-84
2023/08/06 01:01:24;;;;;;;8.10;5.80;;;;;;;;;;5117632;28;20051;-84
2023/08/06 01:03:52;;;;;;;5.78;5.28;;;;;;;;;;5119071;28;20049;-84
2023/08/06 01:06:20;;;;;;;5.50;5.00;;;;;;;;;;5117074;28;20051;-83
2023/08/06 01:08:50;;;;;;;9.45;6.63;;;;;;;;;;5117844;28;20052;-82
2023/08/06 01:11:20;;;;;;;7.25;5.20;;;;;;;;;;5117656;28;20493;-86
2023/08/06 01:13:49;;;;;;;8.05;5.75;;;;;;;;;;5115927;28;20506;-84
2023/08/06 01:16:18;;;;;;;6.25;5.75;;;;;;;;;;5119414;28;20043;-85
2023/08/06 01:18:49;;;;;;;5.90;5.40;;;;;;;;;;5131947;28;20046;-84
2023/08/06 01:21:17;;;;;;;6.57;5.22;;;;;;;;;;5123499;28;20770;-85
2023/08/06 01:23:44;;;;;;;11.00;4.93;;;;;;;;;;5120111;28;20077;-86
2023/08/06 01:26:14;;;;;;;8.15;4.70;;;;;;;;;;5119480;28;20070;-85
2023/08/06 01:29:00;;;;;;;5.30;4.80;;;;;;;;;;5118182;28;20044;-85
2023/08/06 01:31:31;;;;;;;6.05;4.78;;;;;;;;;;5117154;28;20100;-83
2023/08/06 01:34:02;;;;;;;5.13;4.65;;;;;;;;;;5118973;28;20047;-84
2023/08/06 01:36:30;;;;;;;4.78;4.25;;;;;;;;;;5119952;28;20105;-85
2023/08/06 01:38:58;;;;;;;9.93;5.07;;;;;;;;;;5118912;28;20048;-84
2023/08/06 01:41:25;;;;;;;5.05;4.65;;;;;;;;;;5116884;28;20491;-84
2023/08/06 01:43:52;;;;;;;6.63;5.57;;;;;;;;;;5117627;28;20093;-82
2023/08/06 01:46:19;;;;;;;6.53;5.75;;;;;;;;;;5119109;28;20044;-85
2023/08/06 01:48:47;;;;;;;9.07;5.30;;;;;;;;;;5118798;28;20044;-86
2023/08/06 01:51:14;;;;;;;9.38;5.25;;;;;;;;;;5121705;28;20039;-83
2023/08/06 01:53:41;;;;;;;5.07;4.68;;;;;;;;;;5119874;28;20052;-85
2023/08/06 01:56:08;;;;;;;6.20;5.60;;;;;;;;;;5120473;28;20044;-86
2023/08/06 01:58:35;;;;;;;6.03;5.57;;;;;;;;;;5120415;28;20559;-86
2023/08/06 02:01:03;;;;;;;6.70;5.60;;;;;;;;;;5118460;28;20043;-86
2023/08/06 02:03:30;;;;;;;9.10;5.95;;;;;;;;;;5117916;28;20044;-84
2023/08/06 02:05:57;;;;;;;10.02;5.88;;;;;;;;;;5118464;28;20411;-85
2023/08/06 02:08:25;;;;;;;6.75;5.15;;;;;;;;;;5118701;28;20048;-85
2023/08/06 02:10:52;;;;;;;9.40;5.38;;;;;;;;;;5116563;28;20054;-84
2023/08/06 02:13:19;;;;;;;8.90;6.38;;;;;;;;;;5114122;28;20051;-84
2023/08/06 02:15:50;;;;;;;7.88;5.40;;;;;;;;;;5112796;28;20079;-83
2023/08/06 02:18:17;;;;;;;9.73;5.88;;;;;;;;;;5112782;28;20044;-84
2023/08/06 02:20:55;;;;;;;5.18;4.78;;;;;;;;;;5113428;28;20495;-83
2023/08/06 02:23:23;;;;;;;7.78;5.63;;;;;;;;;;5113049;28;20086;-83
2023/08/06 02:25:57;;;;;;;6.22;5.70;;;;;;;;;;5112794;28;20564;-82
2023/08/06 02:28:24;;;;;;;6.25;4.78;;;;;;;;;;5113235;28;20423;-85
2023/08/06 02:30:52;;;;;;;5.03;4.72;;;;;;;;;;5113486;28;20044;-83
2023/08/06 02:33:19;;;;;;;6.35;4.63;;;;;;;;;;5113722;28;20059;-83
2023/08/06 02:35:46;;;;;;;6.32;4.80;;;;;;;;;;5114088;28;20047;-82
2023/08/06 02:38:14;;;;;;;4.50;4.20;;;;;;;;;;5112991;28;20100;-84
2023/08/06 02:40:45;;;;;;;4.15;3.75;;;;;;;;;;5113515;28;20048;-84
2023/08/06 02:43:13;;;;;;;4.45;4.05;;;;;;;;;;5113919;28;20050;-83
2023/08/06 02:45:40;;;;;;;6.82;3.80;;;;;;;;;;5113202;28;20048;-85
2023/08/06 02:48:07;;;;;;;5.25;4.35;;;;;;;;;;5114052;28;20423;-84
2023/08/06 02:50:39;;;;;;;5.15;4.75;;;;;;;;;;5112324;28;20134;-83
2023/08/06 02:53:09;;;;;;;4.85;4.30;;;;;;;;;;5112802;28;20051;-82
2023/08/06 02:55:37;;;;;;;5.68;4.13;;;;;;;;;;5112598;28;20491;-84
2023/08/06 02:58:04;;;;;;;4.75;4.32;;;;;;;;;;5116702;28;20072;-85
2023/08/06 03:00:31;;;;;;;4.88;4.40;;;;;;;;;;5119655;28;20047;-85
2023/08/06 03:02:58;;;;;;;4.15;3.85;;;;;;;;;;5119232;28;20471;-84
2023/08/06 03:05:26;;;;;;;4.40;3.92;;;;;;;;;;5116575;28;20146;-85
2023/08/06 03:07:53;;;;;;;4.18;3.88;;;;;;;;;;5118316;28;20043;-85
2023/08/06 03:10:20;;;;;;;6.13;5.10;;;;;;;;;;5117354;28;20117;-85
2023/08/06 03:12:47;;;;;;;6.82;4.95;;;;;;;;;;5117486;28;20051;-84
2023/08/06 03:15:14;;;;;;;7.82;5.53;;;;;;;;;;5117739;28;20427;-85
2023/08/06 03:17:42;;;;;;;7.43;4.88;;;;;;;;;;5115394;28;20043;-82
2023/08/06 03:20:09;;;;;;;5.75;5.25;;;;;;;;;;5115284;28;20048;-83
2023/08/06 03:22:36;;;;;;;5.93;5.43;;;;;;;;;;5117487;28;20088;-85
2023/08/06 03:25:04;;;;;;;5.70;4.32;;;;;;;;;;5118853;28;20120;-86
2023/08/06 03:27:31;;;;;;;6.10;3.80;;;;;;;;;;5118707;28;20514;-84
2023/08/06 03:30:00;;;;;;;8.57;4.13;;;;;;;;;;5117561;28;20495;-84
2023/08/06 03:32:28;;;;;;;3.72;3.50;;;;;;;;;;5117096;28;20043;-85
2023/08/06 03:34:55;;;;;;;9.82;4.25;;;;;;;;;;5116554;28;20494;-85
2023/08/06 03:37:22;;;;;;;4.82;4.40;;;;;;;;;;5116876;28;20048;-84
2023/08/06 03:39:49;;;;;;;4.82;4.15;;;;;;;;;;5115079;28;20468;-85
2023/08/06 03:42:17;;;;;;;4.93;4.57;;;;;;;;;;5115283;28;20043;-85
2023/08/06 03:44:44;;;;;;;4.38;3.95;;;;;;;;;;5114772;28;20040;-84
2023/08/06 03:47:11;;;;;;;4.45;4.10;;;;;;;;;;5112589;28;20051;-84
2023/08/06 03:49:38;;;;;;;5.10;3.78;;;;;;;;;;5111950;28;20079;-82
2023/08/06 03:52:06;;;;;;;4.30;3.72;;;;;;;;;;5112570;28;20461;-82
2023/08/06 03:54:33;;;;;;;4.40;4.10;;;;;;;;;;5117931;28;20072;-83
2023/08/06 03:57:00;;;;;;;6.13;4.45;;;;;;;;;;5116952;28;20047;-84
2023/08/06 03:59:27;;;;;;;5.72;5.10;;;;;;;;;;5116246;28;20043;-84
2023/08/06 04:01:55;;;;;;;14.80;12.05;;;;;;;;;;5116585;28;20039;-84
2023/08/06 04:04:22;;;;;;;29.92;23.45;;;;;;;;;;5117741;28;20101;-85
2023/08/06 04:06:49;;;;;;;17.83;14.60;;;;;;;;;;5116001;28;20084;-84
2023/08/06 04:09:16;;;;;;;20.15;13.30;;;;;;;;;;5117428;28;20043;-84
2023/08/06 04:11:43;;;;;;;16.92;13.18;;;;;;;;;;5116728;28;20130;-84
2023/08/06 04:14:11;;;;;;;17.00;13.07;;;;;;;;;;5119580;28;20059;-83
2023/08/06 04:16:38;;;;;;;4.85;4.35;;;;;;;;;;5119380;28;20056;-84
2023/08/06 04:19:05;;;;;;;4.03;3.72;;;;;;;;;;5118579;28;20063;-84
2023/08/06 04:21:32;;;;;;;4.72;4.32;;;;;;;;;;5118869;28;20040;-84
2023/08/06 04:24:00;;;;;;;5.20;4.40;;;;;;;;;;5118486;28;20130;-84
2023/08/06 04:26:27;;;;;;;4.25;3.85;;;;;;;;;;5116562;28;20048;-82
2023/08/06 04:28:55;;;;;;;6.40;5.80;;;;;;;;;;5114642;28;20058;-83
2023/08/06 04:31:23;;;;;;;10.48;8.55;;;;;;;;;;5115809;28;20047;-82
2023/08/06 04:33:50;;;;;;;6.53;5.93;;;;;;;;;;5115820;28;20101;-83
2023/08/06 04:36:18;;;;;;;6.28;5.82;;;;;;;;;;5114437;28;20112;-82
2023/08/06 04:38:47;;;;;;;5.93;4.97;;;;;;;;;;5114162;28;20138;-83
2023/08/06 04:41:14;;;;;;;5.40;5.03;;;;;;;;;;5114214;28;20044;-82
2023/08/06 04:43:41;;;;;;;5.97;4.65;;;;;;;;;;5115352;28;20101;-82
2023/08/06 04:46:08;;;;;;;4.55;4.25;;;;;;;;;;5114095;28;20089;-83
2023/08/06 04:48:36;;;;;;;4.97;4.57;;;;;;;;;;5115216;27;20054;-82
2023/08/06 04:51:03;;;;;;;4.05;3.65;;;;;;;;;;5114189;28;20491;-81
2023/08/06 04:53:30;;;;;;;4.55;4.28;;;;;;;;;;5113882;28;20055;-82
2023/08/06 04:55:57;;;;;;;6.75;4.00;;;;;;;;;;5114896;28;20056;-81
2023/08/06 04:58:24;;;;;;;4.10;3.67;;;;;;;;;;5118845;28;20096;-84
2023/08/06 05:00:54;;;;;;;4.80;3.60;;;;;;;;;;5121756;28;20051;-83
2023/08/06 05:03:21;;;;;;;4.75;4.35;;;;;;;;;;5120827;28;20043;-83
2023/08/06 05:05:49;;;;;;;5.72;5.22;;;;;;;;;;5119074;28;20051;-83
2023/08/06 05:08:17;;;;;;;9.25;7.80;;;;;;;;;;5119515;28;20066;-81
2023/08/06 05:10:45;;;;;;;6.25;5.75;;;;;;;;;;5118292;28;20047;-83
2023/08/06 05:13:12;;;;;;;4.13;3.72;;;;;;;;;;5118136;28;20059;-84
2023/08/06 05:15:42;;;;;;;4.85;4.40;;;;;;;;;;5116969;28;20052;-84
2023/08/06 05:18:09;;;;;;;5.13;4.32;;;;;;;;;;5117979;28;20052;-84
2023/08/06 05:20:38;;;;;;;4.10;3.90;;;;;;;;;;5116883;28;20491;-85
2023/08/06 05:23:05;;;;;;;3.97;3.67;;;;;;;;;;5114897;28;20052;-82
2023/08/06 05:25:32;;;;;;;4.32;3.92;;;;;;;;;;5113193;28;20090;-83
2023/08/06 05:28:01;;;;;;;3.97;3.67;;;;;;;;;;5113768;28;20100;-83
2023/08/06 05:30:28;;;;;;;4.38;4.00;;;;;;;;;;5114803;28;20108;-82
2023/08/06 05:32:56;;;;;;;4.50;4.10;;;;;;;;;;5113785;28;20104;-82
2023/08/06 05:35:23;;;;;;;6.40;4.22;;;;;;;;;;5113717;28;20074;-81
2023/08/06 05:37:50;;;;;;;4.15;3.95;;;;;;;;;;5113671;28;20044;-82
2023/08/06 05:40:18;;;;;;;4.18;3.92;;;;;;;;;;5113808;28;20063;-80
2023/08/06 05:42:45;;;;;;;4.38;4.07;;;;;;;;;;5114461;27;20104;-81
2023/08/06 05:45:12;;;;;;;4.72;3.58;;;;;;;;;;5113023;28;20075;-80
2023/08/06 05:47:39;;;;;;;3.55;3.33;;;;;;;;;;5112903;28;20047;-81
2023/08/06 05:50:07;;;;;;;3.88;3.63;;;;;;;;;;5113178;28;20052;-82
2023/08/06 05:52:34;;;;;;;4.95;3.70;;;;;;;;;;5113047;28;20048;-81
2023/08/06 05:55:02;;;;;;;5.25;3.47;;;;;;;;;;5113127;28;20100;-81
2023/08/06 05:57:29;;;;;;;5.07;3.60;;;;;;;;;;5112837;28;20120;-82
2023/08/06 05:59:56;;;;;;;4.70;3.97;;;;;;;;;;5114134;28;20071;-81
2023/08/06 06:02:23;;;;;;;3.70;3.53;;;;;;;;;;5113580;28;20146;-81
2023/08/06 06:04:51;;;;;;;3.35;3.25;;;;;;;;;;5113761;28;20054;-81
2023/08/06 06:07:18;;;;;;;3.60;3.45;;;;;;;;;;5113806;28;20101;-82
2023/08/06 06:09:45;;;;;;;3.42;3.22;;;;;;;;;;5114167;28;20051;-81
2023/08/06 06:12:12;;;;;;;3.33;3.20;;;;;;;;;;5112555;28;20159;-81
2023/08/06 06:14:40;;;;;;;3.55;3.28;;;;;;;;;;5112263;28;20469;-82
2023/08/06 06:17:07;;;;;;;3.40;3.10;;;;;;;;;;5113124;28;20048;-81
2023/08/06 06:19:34;;;;;;;3.05;2.85;;;;;;;;;;5111972;28;20096;-80
2023/08/06 06:22:01;;;;;;;3.70;3.40;;;;;;;;;;5113373;28;20043;-81
2023/08/06 06:24:28;;;;;;;3.33;3.13;;;;;;;;;;5111828;28;20469;-81
2023/08/06 06:26:56;;;;;;;4.50;2.90;;;;;;;;;;5112175;28;20044;-81
2023/08/06 06:29:23;;;;;;;3.67;3.38;;;;;;;;;;5111670;28;20052;-81
2023/08/06 06:31:50;;;;;;;4.22;2.90;;;;;;;;;;5113183;28;20104;-81
2023/08/06 06:34:18;;;;;;;3.72;3.53;;;;;;;;;;5118592;28;20083;-83
2023/08/06 06:36:45;;;;;;;3.45;3.15;;;;;;;;;;5118943;28;20047;-83
2023/08/06 06:39:12;;;;;;;2.70;2.60;;;;;;;;;;5118367;28;20061;-84
2023/08/06 06:41:39;;;;;;;2.90;2.70;;;;;;;;;;5115785;28;20047;-83
2023/08/06 06:44:07;;;;;;;3.85;2.78;;;;;;;;;;5118318;28;20457;-84
2023/08/06 06:46:34;;;;;;;3.40;3.20;;;;;;;;;;5116396;28;20040;-83
2023/08/06 06:49:01;;;;;;;3.47;3.05;;;;;;;;;;5117958;28;20052;-83
2023/08/06 06:51:28;;;;;;;2.83;2.63;;;;;;;;;;5116261;28;20055;-82
2023/08/06 06:53:56;;;;;;;3.25;3.03;;;;;;;;;;5116908;28;20092;-83
2023/08/06 06:56:23;;;;;;;3.10;2.55;;;;;;;;;;5117139;28;20052;-82
2023/08/06 06:58:50;;;;;;;3.00;2.25;;;;;;;;;;5117035;28;20092;-82
2023/08/06 07:01:18;;;;;;;2.65;2.30;;;;;;;;;;5113791;28;20111;-82
2023/08/06 07:03:45;;;;;;;2.45;2.30;;;;;;;;;;5113302;28;20127;-82
2023/08/06 07:06:12;;;;;;;2.85;2.65;;;;;;;;;;5113533;28;20048;-82
2023/08/06 07:08:39;;;;;;;2.20;2.10;;;;;;;;;;5113073;28;20048;-82
2023/08/06 07:11:07;;;;;;;2.55;2.35;;;;;;;;;;5113362;28;20055;-83
2023/08/06 07:13:35;;;;;;;2.17;2.08;;;;;;;;;;5113793;28;20052;-82
2023/08/06 07:16:02;;;;;;;1.90;1.80;;;;;;;;;;5113667;28;20457;-82
2023/08/06 07:18:30;;;;;;;3.45;1.77;;;;;;;;;;5113459;28;20055;-82
2023/08/06 07:20:57;;;;;;;6.03;1.98;;;;;;;;;;5114284;28;20051;-82
2023/08/06 07:23:25;;;;;;;1.75;1.65;;;;;;;;;;5114135;28;20124;-82
2023/08/06 07:25:52;;;;;;;3.20;1.80;;;;;;;;;;5113712;28;20047;-82
2023/08/06 07:28:20;;;;;;;1.77;1.67;;;;;;;;;;5114394;28;20056;-80
2023/08/06 07:30:47;;;;;;;1.52;1.42;;;;;;;;;;5113944;28;20608;-80
2023/08/06 07:33:15;;;;;;;1.52;1.25;;;;;;;;;;5114747;28;20093;-80
2023/08/06 07:35:43;;;;;;;2.95;1.30;;;;;;;;;;5112796;28;20362;-82
2023/08/06 07:38:10;;;;;;;2.75;1.50;;;;;;;;;;5112211;28;20044;-81
2023/08/06 07:40:37;;;;;;;2.22;1.45;;;;;;;;;;5113421;28;20400;-82
2023/08/06 07:43:05;;;;;;;1.35;1.30;;;;;;;;;;5112664;28;20527;-82
2023/08/06 07:45:35;;;;;;;1.63;1.52;;;;;;;;;;5113691;28;20048;-81
2023/08/06 07:48:03;;;;;;;2.15;1.45;;;;;;;;;;5114553;28;20044;-82
2023/08/06 07:50:31;;;;;;;1.77;1.20;;;;;;;;;;5116927;28;20043;-81
2023/08/06 07:52:58;;;;;;;1.42;1.38;;;;;;;;;;5117465;28;20524;-82
2023/08/06 07:55:25;;;;;;;1.95;1.25;;;;;;;;;;5115171;28;20047;-80
2023/08/06 07:57:53;;;;;;;1.20;1.10;;;;;;;;;;5114971;28;20048;-80
2023/08/06 08:00:20;;;;;;;2.25;1.20;;;;;;;;;;5116466;28;20044;-79
2023/08/06 08:02:47;;;;;;;1.10;1.10;;;;;;;;;;5116037;28;20071;-80
2023/08/06 08:05:15;;;;;;;1.45;1.35;;;;;;;;;;5115050;28;20054;-80
2023/08/06 08:07:44;;;;;;;1.67;1.58;;;;;;;;;;5115292;28;20503;-79
2023/08/06 08:10:11;;;;;;;3.05;1.80;;;;;;;;;;5119297;28;20134;-80
2023/08/06 08:12:38;;;;;;;2.03;1.75;;;;;;;;;;5119347;28;20055;-80
2023/08/06 08:15:06;;;;;;;1.17;1.15;;;;;;;;;;5118482;28;20104;-81
2023/08/06 08:17:34;;;;;;;1.35;0.90;;;;;;;;;;5118069;28;20129;-81
2023/08/06 08:20:01;;;;;;;0.90;0.90;;;;;;;;;;5116703;28;20047;-83
2023/08/06 08:22:29;;;;;;;1.00;1.00;;;;;;;;;;5116357;28;20392;-81
2023/08/06 08:24:56;;;;;;;1.13;1.02;;;;;;;;;;5117259;28;20047;-81
2023/08/06 08:27:23;;;;;;;3.58;1.00;;;;;;;;;;5115830;28;20256;-80
2023/08/06 08:29:51;;;;;;;1.25;1.08;;;;;;;;;;5115915;28;20560;-79
2023/08/06 08:32:18;;;;;;;0.90;0.90;;;;;;;;;;5114725;28;20081;-79
2023/08/06 08:34:45;;;;;;;1.00;0.75;;;;;;;;;;5116326;28;20051;-80
2023/08/06 08:37:13;;;;;;;1.80;1.70;;;;;;;;;;5115474;28;20108;-80
2023/08/06 08:39:43;;;;;;;5.63;5.13;;;;;;;;;;5117139;28;20494;-80
2023/08/06 08:42:11;;;;;;;3.75;3.45;;;;;;;;;;5117430;28;20509;-79
2023/08/06 08:44:39;;;;;;;3.20;3.00;;;;;;;;;;5117687;28;20059;-79
2023/08/06 08:47:09;;;;;;;1.20;1.08;;;;;;;;;;5116377;28;20491;-80
2023/08/06 08:49:36;;;;;;;1.20;1.10;;;;;;;;;;5115263;28;20052;-83
2023/08/06 08:52:10;;;;;;;1.88;1.38;;;;;;;;;;5114911;28;20108;-79
2023/08/06 08:54:39;;;;;;;1.15;1.05;;;;;;;;;;5117033;28;20079;-79
2023/08/06 08:57:06;;;;;;;0.95;0.80;;;;;;;;;;5115307;28;20089;-81
2023/08/06 08:59:34;;;;;;;1.63;0.90;;;;;;;;;;5114162;28;20559;-82
2023/08/06 09:02:01;;;;;;;1.42;0.75;;;;;;;;;;5114330;28;20120;-82
2023/08/06 09:04:32;;;;;;;0.80;0.68;;;;;;;;;;5114382;28;20138;-82
2023/08/06 09:07:01;;;;;;;0.70;0.70;;;;;;;;;;5115862;28;20040;-80
2023/08/06 09:09:38;;;;;;;4.15;0.95;;;;;;;;;;5114298;28;20047;-80
2023/08/06 09:12:10;;;;;;;0.73;0.60;;;;;;;;;;5114465;28;20108;-81
2023/08/06 09:14:37;;;;;;;1.35;0.98;;;;;;;;;;5114192;28;20507;-82
2023/08/06 09:17:05;;;;;;;2.53;0.68;;;;;;;;;;5115374;28;20051;-81
2023/08/06 09:19:33;;;;;;;0.75;0.75;;;;;;;;;;5115268;28;20121;-80
2023/08/06 09:22:00;;;;;;;0.80;0.80;;;;;;;;;;5114409;28;20043;-79
2023/08/06 09:24:28;;;;;;;1.67;0.85;;;;;;;;;;5114890;28;20043;-80
2023/08/06 09:26:55;;;;;;;5.05;0.70;;;;;;;;;;5113950;28;20093;-78
2023/08/06 09:29:22;;;;;;;0.80;0.80;;;;;;;;;;5114018;28;20526;-79
2023/08/06 09:31:53;;;;;;;2.40;0.90;;;;;;;;;;5114164;28;20048;-81
2023/08/06 09:34:22;;;;;;;0.75;0.75;;;;;;;;;;5114916;28;20507;-78
2023/08/06 09:36:53;;;;;;;1.40;0.60;;;;;;;;;;5113673;28;20044;-78
2023/08/06 09:39:30;;;;;;;2.47;1.00;;;;;;;;;;5113642;28;20392;-80
2023/08/06 09:41:59;;;;;;;1.35;0.70;;;;;;;;;;5113905;28;20051;-78
2023/08/06 09:44:28;;;;;;;2.50;0.90;;;;;;;;;;5113617;28;20051;-81
2023/08/06 09:46:56;;;;;;;2.22;0.60;;;;;;;;;;5114674;28;20052;-80
2023/08/06 09:49:42;;;;;;;2.10;0.77;;;;;;;;;;5117495;28;20048;-82
2023/08/06 09:52:11;;;;;;;1.38;0.80;;;;;;;;;;5117201;28;20043;-81
2023/08/06 09:54:39;;;;;;;1.85;1.02;;;;;;;;;;5116961;28;20056;-82
2023/08/06 09:57:06;;;;;;;1.02;0.60;;;;;;;;;;5116998;28;20472;-82
2023/08/06 09:59:34;;;;;;;2.30;0.75;;;;;;;;;;5117114;28;20089;-80
2023/08/06 10:02:03;;;;;;;1.40;0.60;;;;;;;;;;5116220;28;20089;-79
2023/08/06 10:04:30;;;;;;;0.80;0.43;;;;;;;;;;5115186;28;20089;-80
2023/08/06 10:07:07;;;;;;;2.25;0.45;;;;;;;;;;5115764;28;20070;-78
2023/08/06 10:09:34;;;;;;;0.68;0.45;;;;;;;;;;5114100;28;20056;-79
2023/08/06 10:12:02;;;;;;;0.52;0.52;;;;;;;;;;5116154;28;20461;-80
2023/08/06 10:14:31;;;;;;;1.20;0.65;;;;;;;;;;5118200;28;20062;-80
2023/08/06 10:16:59;;;;;;;0.68;0.50;;;;;;;;;;5118980;28;20051;-79
2023/08/06 10:19:27;;;;;;;1.92;0.60;;;;;;;;;;5117532;28;20052;-80
2023/08/06 10:22:13;;;;;;;0.88;0.50;;;;;;;;;;5117594;28;20138;-80
2023/08/06 10:24:50;;;;;;;1.88;0.45;;;;;;;;;;5116555;28;20405;-81
2023/08/06 10:27:21;;;;;;;0.60;0.60;;;;;;;;;;5117580;27;20040;-80
2023/08/06 10:29:50;;;;;;;1.73;0.50;;;;;;;;;;5115282;28;20057;-79
2023/08/06 10:32:18;;;;;;;0.40;0.40;;;;;;;;;;5115404;28;20058;-79
2023/08/06 10:34:58;;;;;;;0.93;0.43;;;;;;;;;;5115894;28;20449;-80
2023/08/06 10:37:35;;;;;;;0.77;0.40;;;;;;;;;;5114423;28;20093;-80
2023/08/06 10:40:03;;;;;;;0.40;0.35;;;;;;;;;;5114918;28;20047;-80
2023/08/06 10:42:30;;;;;;;0.57;0.40;;;;;;;;;;5114461;28;20043;-79
2023/08/06 10:45:17;;;;;;;2.08;0.40;;;;;;;;;;5114455;28;20135;-79
2023/08/06 10:47:45;;;;;;;1.27;0.60;;;;;;;;;;5114817;28;20047;-80
2023/08/06 10:50:14;;;;;;;1.55;0.40;;;;;;;;;;5114324;28;20048;-81
2023/08/06 10:52:41;;;;;;;0.45;0.30;;;;;;;;;;5114098;28;20064;-78
2023/08/06 10:55:09;;;;;;;1.90;0.57;;;;;;;;;;5113812;28;20052;-77
2023/08/06 10:57:36;;;;;;;0.57;0.50;;;;;;;;;;5113778;28;20073;-81
2023/08/06 11:00:08;;;;;;;1.77;0.60;;;;;;;;;;5113090;28;20047;-78
2023/08/06 11:02:47;;;;;;;2.00;0.68;;;;;;;;;;5113687;28;20043;-79
2023/08/06 11:05:15;;;;;;;1.73;0.30;;;;;;;;;;5114378;28;20052;-79
2023/08/06 11:07:42;;;;;;;2.75;0.40;;;;;;;;;;5112621;28;20453;-80
2023/08/06 11:10:11;;;;;;;0.40;0.40;;;;;;;;;;5114568;28;20051;-79
2023/08/06 11:12:38;;;;;;;0.43;0.43;;;;;;;;;;5114356;28;20580;-81
2023/08/06 11:15:06;;;;;;;0.68;0.38;;;;;;;;;;5114269;28;20055;-80
2023/08/06 11:17:34;;;;;;;2.25;0.30;;;;;;;;;;5113081;28;20043;-79
2023/08/06 11:20:05;;;;;;;1.25;0.38;;;;;;;;;;5113065;28;20096;-80
2023/08/06 11:22:33;;;;;;;0.47;0.20;;;;;;;;;;5117413;28;20841;-80
2023/08/06 11:25:03;;;;;;;0.70;0.15;;;;;;;;;;5125298;28;20058;-79
2023/08/06 11:27:30;;;;;;;1.15;0.20;;;;;;;;;;5123107;28;20047;-81
2023/08/06 11:29:58;;;;;;;1.35;0.30;;;;;;;;;;5123533;28;20047;-81
2023/08/06 11:32:25;;;;;;;0.20;0.20;;;;;;;;;;5123534;28;20051;-80
2023/08/06 11:34:55;;;;;;;0.47;0.15;;;;;;;;;;5123500;28;20547;-81
2023/08/06 11:37:24;;;;;;;0.20;0.20;;;;;;;;;;5121735;28;20075;-81
2023/08/06 11:39:51;;;;;;;0.20;0.20;;;;;;;;;;5120431;28;20044;-80
2023/08/06 11:42:19;;;;;;;0.10;0.10;;;;;;;;;;5119023;28;20043;-80
2023/08/06 11:44:46;;;;;;;0.20;0.20;;;;;;;;;;5118689;28;20043;-80
2023/08/06 11:47:15;;;;;;;0.10;0.10;;;;;;;;;;5120415;28;20047;-83
2023/08/06 11:49:49;;;;;;;0.00;0.00;;;;;;;;;;5120693;28;20560;-80
2023/08/06 11:52:20;;;;;;;0.43;0.20;;;;;;;;;;5121533;28;20051;-81
2023/08/06 11:54:48;;;;;;;0.60;0.20;;;;;;;;;;5122489;28;20499;-80
2023/08/06 11:57:16;;;;;;;0.10;0.10;;;;;;;;;;5122544;28;20055;-79
2023/08/06 11:59:44;;;;;;;0.00;0.00;;;;;;;;;;5121343;28;20518;-79
2023/08/06 12:02:12;;;;;;;0.52;0.10;;;;;;;;;;5121250;28;20043;-79
2023/08/06 12:04:57;;;;;;;0.08;0.00;;;;;;;;;;5118399;28;20036;-79
2023/08/06 12:07:29;;;;;;;1.40;0.17;;;;;;;;;;5119071;28;20043;-78
2023/08/06 12:09:57;;;;;;;0.15;0.10;;;;;;;;;;5118547;28;20499;-79
2023/08/06 12:12:24;;;;;;;0.10;0.10;;;;;;;;;;5119017;28;20525;-79
2023/08/06 12:14:51;;;;;;;0.10;0.05;;;;;;;;;;5119095;28;20051;-79
2023/08/06 12:17:19;;;;;;;0.10;0.10;;;;;;;;;;5119855;28;20465;-80
2023/08/06 12:19:47;;;;;;;0.20;0.10;;;;;;;;;;5121591;28;20044;-79
2023/08/06 12:22:14;;;;;;;0.65;0.10;;;;;;;;;;5123647;28;20047;-80
2023/08/06 12:24:42;;;;;;;1.45;0.00;;;;;;;;;;5125006;28;20069;-80
2023/08/06 12:27:10;;;;;;;0.00;0.00;;;;;;;;;;5124227;28;20048;-83
2023/08/06 12:29:38;;;;;;;0.28;0.00;;;;;;;;;;5121564;28;20073;-82
2023/08/06 12:32:05;;;;;;;0.00;0.00;;;;;;;;;;5120825;28;20069;-82
2023/08/06 12:34:33;;;;;;;0.00;0.00;;;;;;;;;;5119809;28;20054;-80
2023/08/06 12:37:18;;;;;;;0.03;0.03;;;;;;;;;;5120342;28;20119;-80
2023/08/06 12:39:45;;;;;;;0.10;0.10;;;;;;;;;;5124153;28;20044;-80
2023/08/06 12:42:13;;;;;;;0.30;0.05;;;;;;;;;;5123668;28;20100;-81
2023/08/06 12:44:40;;;;;;;0.10;0.08;;;;;;;;;;5123498;28;20051;-83
2023/08/06 12:47:08;;;;;;;0.08;0.08;;;;;;;;;;5118986;28;20043;-82
2023/08/06 12:49:35;;;;;;;0.68;0.00;;;;;;;;;;5121796;28;20150;-79
2023/08/06 12:52:06;;;;;;;0.50;0.00;;;;;;;;;;5120141;28;20465;-78
2023/08/06 12:54:36;;;;;;;0.43;0.10;;;;;;;;;;5120011;28;20052;-81
2023/08/06 12:57:04;;;;;;;0.10;0.10;;;;;;;;;;5119188;28;20122;-80
2023/08/06 12:59:33;;;;;;;0.15;0.10;;;;;;;;;;5118787;28;20050;-79
2023/08/06 13:02:00;;;;;;;0.20;0.08;;;;;;;;;;5121822;28;20066;-80
2023/08/06 13:04:28;;;;;;;0.10;0.10;;;;;;;;;;5121607;28;20047;-79
2023/08/06 13:06:55;;;;;;;0.03;0.03;;;;;;;;;;5118767;28;20052;-80
2023/08/06 13:09:23;;;;;;;1.10;0.00;;;;;;;;;;5118328;28;20101;-81
2023/08/06 13:11:50;;;;;;;0.17;0.10;;;;;;;;;;5120529;28;20044;-80
2023/08/06 13:14:17;;;;;;;0.05;0.05;;;;;;;;;;5117410;28;20043;-79
2023/08/06 13:16:45;;;;;;;0.25;0.00;;;;;;;;;;5118332;28;20501;-80
2023/08/06 13:19:15;;;;;;;0.00;0.00;;;;;;;;;;5118502;28;20077;-81
2023/08/06 13:21:42;;;;;;;0.00;0.00;;;;;;;;;;5117134;28;20047;-79
2023/08/06 13:24:10;;;;;;;0.10;0.00;;;;;;;;;;5119115;28;20051;-80
2023/08/06 13:26:37;;;;;;;0.60;0.00;;;;;;;;;;5118526;28;20052;-80
2023/08/06 13:29:04;;;;;;;0.73;0.00;;;;;;;;;;5117857;28;20051;-81
2023/08/06 13:31:31;;;;;;;0.93;0.10;;;;;;;;;;5118024;28;20048;-79
2023/08/06 13:33:59;;;;;;;0.10;0.10;;;;;;;;;;5118370;28;20046;-79
2023/08/06 13:36:26;;;;;;;0.00;0.00;;;;;;;;;;5116228;28;20449;-80
2023/08/06 13:38:54;;;;;;;0.00;0.00;;;;;;;;;;5117445;28;20066;-78
2023/08/06 13:41:21;;;;;;;0.65;0.10;;;;;;;;;;5116869;28;20043;-80
2023/08/06 13:43:49;;;;;;;0.32;0.00;;;;;;;;;;5115961;28;20040;-79
2023/08/06 13:46:19;;;;;;;0.20;0.08;;;;;;;;;;5115889;28;20048;-80
2023/08/06 13:48:50;;;;;;;0.00;0.00;;;;;;;;;;5117023;28;20043;-81
2023/08/06 13:51:20;;;;;;;0.25;0.00;;;;;;;;;;5115701;28;20051;-82
2023/08/06 13:53:47;;;;;;;0.30;0.10;;;;;;;;;;5115513;28;20048;-80
2023/08/06 13:56:17;;;;;;;0.00;0.00;;;;;;;;;;5116261;28;20051;-81
2023/08/06 13:58:44;;;;;;;0.35;0.00;;;;;;;;;;5116711;28;20112;-80
2023/08/06 14:01:13;;;;;;;0.00;0.00;;;;;;;;;;5114161;28;20047;-80
2023/08/06 14:03:40;;;;;;;0.00;0.00;;;;;;;;;;5115012;28;20496;-78
2023/08/06 14:06:08;;;;;;;0.10;0.10;;;;;;;;;;5115869;28;20050;-80
2023/08/06 14:08:35;;;;;;;0.00;0.00;;;;;;;;;;5114981;28;20055;-81
2023/08/06 14:11:02;;;;;;;0.00;0.00;;;;;;;;;;5115935;28;20052;-81
2023/08/06 14:13:29;;;;;;;0.00;0.00;;;;;;;;;;5114523;28;20070;-80
2023/08/06 14:15:57;;;;;;;0.20;0.05;;;;;;;;;;5114827;28;20047;-80
2023/08/06 14:18:24;;;;;;;0.43;0.10;;;;;;;;;;5116213;28;20590;-81
2023/08/06 14:20:51;;;;;;;0.60;0.00;;;;;;;;;;5114225;28;20093;-80
2023/08/06 14:23:18;;;;;;;0.00;0.00;;;;;;;;;;5116259;28;20461;-81
2023/08/06 14:25:46;;;;;;;0.00;0.00;;;;;;;;;;5116262;28;20047;-82
2023/08/06 14:28:13;;;;;;;0.25;0.10;;;;;;;;;;5115470;27;20097;-82
2023/08/06 14:30:40;;;;;;;1.65;0.05;;;;;;;;;;5113591;28;20294;-80
2023/08/06 14:33:07;;;;;;;0.13;0.10;;;;;;;;;;5115979;28;20092;-81
2023/08/06 14:35:52;;;;;;;0.00;0.00;;;;;;;;;;5116825;28;20055;-81
2023/08/06 14:38:19;;;;;;;0.35;0.30;;;;;;;;;;5116707;28;20044;-81
2023/08/06 14:40:46;;;;;;;0.20;0.20;;;;;;;;;;5116540;28;20096;-83
2023/08/06 14:43:14;;;;;;;0.10;0.10;;;;;;;;;;5116796;28;20052;-81
2023/08/06 14:45:42;;;;;;;0.00;0.00;;;;;;;;;;5117360;28;20501;-82
2023/08/06 14:48:09;;;;;;;0.08;0.08;;;;;;;;;;5116314;28;20130;-81